Time;durP1;ratioP1;P1;durP2;ratioP2;P2;SDS_P1;SDS_P2;PMS_P1;PMS_P2;Temp;Humidity;BMP_temperature;BMP_pressure;BME280_temperature;BME280_humidity;BME280_pressure;Samples;Min_cycle;Max_cycle;Signal;HPM_P1;HPM_P2
2022/06/14 00:08:42;;;;;;;3.58;1.65;;;;;;;17.99;54.65;100664.31;18411191;31;20118;-65
2022/06/14 00:18:47;;;;;;;3.10;1.70;;;;;;;17.97;55.04;100677.53;18356631;32;20093;-65
2022/06/14 00:28:51;;;;;;;2.47;1.50;;;;;;;18.07;53.10;100664.09;18356346;32;20089;-65
2022/06/14 00:38:56;;;;;;;2.87;1.70;;;;;;;17.94;53.21;100692.62;18356440;32;20122;-65
2022/06/14 00:49:03;;;;;;;4.57;1.98;;;;;;;18.17;51.69;100692.00;18355409;32;20371;-65
2022/06/14 00:59:13;;;;;;;5.68;1.92;;;;;;;17.70;51.54;100698.56;18356030;32;20120;-66
2022/06/14 01:09:20;;;;;;;2.95;1.73;;;;;;;18.48;50.48;100695.47;18354614;32;20085;-66
2022/06/14 01:19:26;;;;;;;2.97;1.65;;;;;;;18.17;52.70;100710.50;18353751;32;20090;-65
2022/06/14 01:29:32;;;;;;;3.95;2.00;;;;;;;17.67;55.19;100740.84;18353304;32;20108;-66
2022/06/14 01:39:37;;;;;;;5.90;2.30;;;;;;;16.90;59.33;100748.87;18352962;32;20086;-65
2022/06/14 02:00:25;;;;;;;4.07;2.10;;;;;;;16.15;62.63;100775.91;18352967;32;20119;-66
2022/06/14 02:10:35;;;;;;;3.83;2.15;;;;;;;16.15;62.58;100781.19;18361766;32;20314;-65
2022/06/14 02:20:42;;;;;;;4.47;1.90;;;;;;;15.46;65.03;100786.75;18362211;32;20386;-65
2022/06/14 02:30:50;;;;;;;3.08;1.87;;;;;;;15.18;66.64;100793.31;18361058;32;20146;-65
2022/06/14 02:40:58;;;;;;;4.80;2.33;;;;;;;14.97;67.67;100799.75;18360597;32;20097;-66
2022/06/14 02:51:06;;;;;;;6.28;2.35;;;;;;;15.03;66.15;100810.19;18360452;32;20356;-65
2022/06/14 03:01:14;;;;;;;5.37;2.75;;;;;;;14.72;68.05;100815.84;18360909;32;20132;-65
2022/06/14 03:11:29;;;;;;;4.18;2.50;;;;;;;14.75;68.63;100823.69;18358664;32;20090;-65
2022/06/14 03:21:36;;;;;;;4.55;2.45;;;;;;;14.26;71.27;100825.09;18411511;31;20115;-65
2022/06/14 03:31:46;;;;;;;4.30;2.30;;;;;;;14.73;67.97;100830.75;18359074;32;20437;-65
2022/06/14 03:41:52;;;;;;;4.85;2.55;;;;;;;15.25;67.43;100836.16;18358486;32;20129;-65
2022/06/14 03:52:02;;;;;;;5.87;2.40;;;;;;;15.06;68.40;100835.56;18359053;32;20115;-65
2022/06/14 04:02:09;;;;;;;5.15;2.30;;;;;;;15.63;67.33;100849.63;18357457;32;20220;-65
2022/06/14 04:12:22;;;;;;;6.72;2.53;;;;;;;16.40;65.50;100852.69;18356928;32;20472;-65
2022/06/14 04:22:32;;;;;;;5.05;2.40;;;;;;;16.70;63.33;100860.03;18356145;32;20102;-65
2022/06/14 04:32:43;;;;;;;7.43;2.05;;;;;;;18.15;61.48;100870.81;18356442;32;20368;-66
2022/06/14 04:42:51;;;;;;;3.47;1.87;;;;;;;20.84;51.36;100878.28;18355981;32;20089;-66
2022/06/14 04:52:58;;;;;;;3.62;1.65;;;;;;;20.81;52.48;100875.75;18356607;32;20089;-66
2022/06/14 05:03:04;;;;;;;3.05;1.55;;;;;;;21.31;49.90;100890.69;18378116;32;20093;-66
2022/06/14 05:13:11;;;;;;;3.90;1.70;;;;;;;21.05;51.63;100900.50;18392673;31;20115;-66
2022/06/14 05:23:21;;;;;;;3.67;1.67;;;;;;;21.20;51.55;100917.63;18417668;32;20408;-66
2022/06/14 05:33:40;;;;;;;6.03;1.70;;;;;;;22.44;49.12;100916.19;18413407;32;20128;-66
2022/06/14 05:43:47;;;;;;;4.72;1.60;;;;;;;22.22;45.02;100921.56;18411892;32;20107;-66
2022/06/14 05:53:57;;;;;;;3.70;1.83;;;;;;;21.87;43.58;100916.81;18364060;32;20108;-66
2022/06/14 06:04:04;;;;;;;3.55;1.83;;;;;;;22.43;43.64;100919.78;18360903;32;20156;-66
2022/06/14 06:14:13;;;;;;;2.92;1.55;;;;;;;21.84;43.20;100925.78;18360476;32;20119;-66
2022/06/14 06:24:19;;;;;;;2.72;1.52;;;;;;;23.09;43.67;100929.28;18359572;32;20487;-66
2022/06/14 06:34:24;;;;;;;4.82;1.55;;;;;;;22.63;44.60;100942.00;18360724;32;20077;-66
2022/06/14 06:44:32;;;;;;;5.15;1.58;;;;;;;23.19;41.57;100952.81;18413158;31;20101;-66
2022/06/14 06:54:41;;;;;;;3.62;1.55;;;;;;;23.24;40.65;100945.47;18362055;31;20103;-64
2022/06/14 07:05:05;;;;;;;4.30;1.30;;;;;;;23.54;37.01;100948.50;18376993;32;20085;-66
2022/06/14 07:15:15;;;;;;;8.13;1.20;;;;;;;24.20;35.22;100951.53;18423171;31;20088;-66
2022/06/14 07:25:21;;;;;;;3.62;1.25;;;;;;;26.45;31.64;100946.34;18382847;32;20093;-66
2022/06/14 07:35:28;;;;;;;4.03;1.45;;;;;;;27.20;30.42;100949.81;18358457;32;20153;-66
2022/06/14 07:45:33;;;;;;;3.62;1.10;;;;;;;26.88;31.64;100947.34;18357711;32;20373;-67
2022/06/14 07:55:41;;;;;;;10.38;2.90;;;;;;;26.15;30.21;100949.03;18357306;32;20438;-66
2022/06/14 08:05:48;;;;;;;2.30;1.12;;;;;;;25.53;29.19;100945.44;18356450;32;20105;-66
2022/06/14 08:15:55;;;;;;;2.83;1.60;;;;;;;25.24;28.29;100961.25;18357160;32;20174;-66
2022/06/14 08:26:03;;;;;;;5.25;1.60;;;;;;;25.38;26.66;100952.47;18356239;31;20077;-66
2022/06/14 08:36:10;;;;;;;2.97;1.12;;;;;;;25.28;28.85;100960.13;18357273;32;20089;-66
2022/06/14 08:46:21;;;;;;;2.40;1.00;;;;;;;24.86;27.43;100962.37;18386812;32;20392;-66
2022/06/14 08:56:33;;;;;;;1.87;1.05;;;;;;;24.82;27.87;100946.63;18397121;32;20103;-66
2022/06/14 09:06:58;;;;;;;1.33;0.90;;;;;;;24.84;26.79;100955.41;18534575;32;20120;-66
2022/06/14 09:17:39;;;;;;;4.32;1.27;;;;;;;24.74;30.04;100963.88;18530484;32;20155;-66
2022/06/14 09:28:19;;;;;;;3.72;1.20;;;;;;;25.12;32.49;100960.13;18458662;32;20151;-67
2022/06/14 09:38:51;;;;;;;1.62;1.17;;;;;;;25.72;34.02;100955.06;18490441;32;20541;-64
2022/06/14 09:49:36;;;;;;;3.42;1.30;;;;;;;25.03;31.03;100948.13;18490118;32;20168;-67
2022/06/14 09:59:52;;;;;;;5.20;1.37;;;;;;;25.45;32.32;100951.16;18468112;32;20651;-67
2022/06/14 10:10:24;;;;;;;4.43;1.37;;;;;;;25.82;34.90;100929.53;18452299;32;20089;-66
2022/06/14 10:20:41;;;;;;;4.80;1.50;;;;;;;24.85;31.29;100928.63;18365579;32;20093;-67
2022/06/14 10:31:03;;;;;;;2.97;1.20;;;;;;;25.63;32.49;100927.03;18422199;32;20128;-66
2022/06/14 10:41:14;;;;;;;4.05;1.40;;;;;;;26.42;31.43;100917.09;18414891;31;20114;-67
2022/06/14 10:51:27;;;;;;;5.35;1.37;;;;;;;26.65;27.50;100909.44;18458517;31;20096;-67
2022/06/14 11:01:40;;;;;;;2.62;0.93;;;;;;;26.58;30.96;100902.78;18444494;31;20096;-66
2022/06/14 11:12:00;;;;;;;2.60;1.10;;;;;;;26.29;31.10;100905.41;18371200;32;20112;-67
2022/06/14 11:22:11;;;;;;;2.85;1.10;;;;;;;26.17;30.37;100891.78;18358567;32;20089;-67
2022/06/14 11:32:27;;;;;;;4.10;1.37;;;;;;;26.67;28.69;100904.87;18357814;31;20626;-67
2022/06/14 11:42:33;;;;;;;2.73;1.40;;;;;;;26.37;30.41;100903.16;18411080;31;20093;-67
2022/06/14 11:53:07;;;;;;;4.70;1.17;;;;;;;26.22;29.95;100898.72;18358124;32;20087;-67
2022/06/14 12:03:25;;;;;;;1.67;1.00;;;;;;;26.48;29.38;100912.31;18369180;32;20465;-67
2022/06/14 12:13:48;;;;;;;3.28;1.25;;;;;;;26.58;28.20;100910.81;18411868;32;20496;-66
2022/06/14 12:23:56;;;;;;;4.05;1.20;;;;;;;26.52;31.69;100905.81;18472264;31;20119;-66
2022/06/14 12:34:05;;;;;;;4.57;2.10;;;;;;;25.70;30.46;100898.13;18361608;32;20132;-67
2022/06/14 12:44:26;;;;;;;2.72;1.10;;;;;;;26.28;27.15;100887.66;18369484;32;20089;-64
2022/06/14 12:54:41;;;;;;;2.60;1.20;;;;;;;26.69;28.07;100881.53;18469178;31;20101;-67
2022/06/14 13:04:49;;;;;;;2.08;1.00;;;;;;;25.94;29.94;100884.28;18367859;32;20093;-66
2022/06/14 13:14:58;;;;;;;3.40;1.25;;;;;;;26.70;28.80;100885.06;18401186;31;20127;-67
2022/06/14 13:25:23;;;;;;;1.75;1.20;;;;;;;27.01;31.03;100875.13;18468808;31;20373;-68
2022/06/14 13:35:39;;;;;;;3.17;1.10;;;;;;;26.58;31.01;100878.69;18352008;32;20104;-66
2022/06/14 13:45:48;;;;;;;4.35;1.25;;;;;;;26.84;30.66;100857.41;18348511;32;20093;-67
2022/06/14 13:56:00;;;;;;;4.55;1.60;;;;;;;26.49;30.38;100849.81;18348261;32;20125;-66
2022/06/14 14:06:08;;;;;;;2.10;1.20;;;;;;;24.92;33.13;100865.94;18413205;31;20096;-66
2022/06/14 14:16:15;;;;;;;5.82;1.12;;;;;;;26.30;31.18;100848.28;18415738;31;20155;-67
2022/06/14 14:26:30;;;;;;;7.05;1.50;;;;;;;26.16;32.02;100849.94;18402437;32;20150;-68
2022/06/14 14:36:44;;;;;;;1.63;0.90;;;;;;;25.98;30.94;100833.19;18359560;32;20082;-65
2022/06/14 14:46:55;;;;;;;3.33;1.20;;;;;;;25.70;30.84;100836.66;18359715;32;20175;-67
2022/06/14 14:57:03;;;;;;;4.78;1.10;;;;;;;25.55;30.88;100841.09;18359378;32;20117;-66
2022/06/14 15:07:14;;;;;;;3.85;1.33;;;;;;;26.22;29.88;100829.16;18358753;32;20082;-67
2022/06/14 15:27:47;;;;;;;2.95;1.10;;;;;;;25.19;28.99;100825.28;18363871;31;20438;-66
2022/06/14 15:38:06;;;;;;;3.47;0.90;;;;;;;24.97;31.40;100812.28;18355340;32;20105;-67
2022/06/14 15:48:20;;;;;;;3.03;1.00;;;;;;;25.05;31.26;100814.50;18350871;32;20444;-66
2022/06/14 15:58:28;;;;;;;0.82;0.80;;;;;;;24.88;30.64;100819.00;18357192;32;20084;-66
2022/06/14 16:08:34;;;;;;;1.48;0.82;;;;;;;23.98;30.90;100813.94;18377527;31;74833;-67
2022/06/14 16:18:42;;;;;;;1.37;0.80;;;;;;;24.40;31.37;100805.56;18374501;32;20085;-66
2022/06/14 16:28:54;;;;;;;1.40;0.62;;;;;;;24.37;30.61;100798.59;18366498;32;20100;-66
2022/06/14 16:39:01;;;;;;;2.92;0.90;;;;;;;24.28;29.46;100790.22;18403026;32;20103;-67
2022/06/14 16:49:23;;;;;;;2.37;0.93;;;;;;;24.31;30.21;100795.41;18418663;32;20176;-66
2022/06/14 16:59:36;;;;;;;1.27;0.85;;;;;;;24.23;29.06;100794.00;18414504;32;20464;-66
2022/06/14 17:10:08;;;;;;;4.53;1.02;;;;;;;23.88;30.47;100790.50;18472108;31;20088;-66
2022/06/14 17:20:25;;;;;;;3.10;0.82;;;;;;;24.08;30.36;100786.81;18418417;32;20093;-66
2022/06/14 17:30:35;;;;;;;1.08;0.80;;;;;;;23.59;31.10;100785.72;18385365;32;20104;-67
2022/06/14 17:40:41;;;;;;;2.20;0.87;;;;;;;23.57;31.21;100792.94;18369512;32;20174;-66
2022/06/14 17:50:50;;;;;;;1.77;0.73;;;;;;;23.32;32.25;100799.50;18360351;32;20096;-66
2022/06/14 18:00:56;;;;;;;1.48;0.95;;;;;;;22.69;32.33;100798.91;18362072;32;20118;-66
2022/06/14 18:11:03;;;;;;;1.20;0.88;;;;;;;22.81;32.22;100809.91;18361003;32;20114;-66
2022/06/14 18:21:09;;;;;;;0.60;0.60;;;;;;;22.69;32.69;100811.34;18360872;32;20112;-66
2022/06/14 18:31:28;;;;;;;2.90;1.10;;;;;;;22.53;33.37;100806.75;18388065;32;20093;-66
2022/06/14 18:41:35;;;;;;;1.95;0.88;;;;;;;22.29;33.44;100825.53;18398950;32;20110;-66
2022/06/14 18:51:41;;;;;;;0.93;0.85;;;;;;;22.31;33.94;100825.44;18423882;32;20110;-66
2022/06/14 19:02:25;;;;;;;1.15;1.00;;;;;;;21.89;34.97;100829.91;18365181;32;20516;-66
2022/06/14 19:12:56;;;;;;;1.70;1.00;;;;;;;21.89;35.20;100837.88;18353760;32;20105;-66
2022/06/14 19:23:27;;;;;;;0.93;0.90;;;;;;;21.68;36.46;100842.34;18383230;31;20170;-67
2022/06/14 19:33:40;;;;;;;1.90;1.10;;;;;;;21.26;37.17;100852.81;18387375;32;20434;-66
2022/06/14 19:43:44;;;;;;;1.62;1.10;;;;;;;21.19;39.56;100860.16;18384634;32;20139;-66
2022/06/14 19:53:50;;;;;;;2.62;1.08;;;;;;;20.90;39.32;100871.88;18417153;32;20111;-66
2022/06/14 20:03:55;;;;;;;2.87;1.08;;;;;;;20.44;40.28;100875.31;18432557;31;20141;-66
2022/06/14 20:14:01;;;;;;;2.03;0.80;;;;;;;20.26;39.74;100870.69;18394912;31;20120;-66
2022/06/14 20:24:08;;;;;;;2.12;1.02;;;;;;;19.67;41.01;100884.06;18370193;32;20147;-66
2022/06/14 20:34:14;;;;;;;1.37;1.08;;;;;;;19.10;44.75;100874.34;18377557;32;20097;-66
2022/06/14 20:44:17;;;;;;;1.42;1.05;;;;;;;18.73;47.69;100885.97;18417313;32;20089;-66
2022/06/14 20:54:23;;;;;;;2.30;1.25;;;;;;;18.28;48.50;100885.44;18386126;32;20500;-65
2022/06/14 21:04:27;;;;;;;1.20;1.10;;;;;;;17.71;49.96;100890.38;18353941;32;20085;-66
2022/06/14 21:14:39;;;;;;;2.90;1.27;;;;;;;17.32;51.02;100893.03;18374288;31;20655;-66
2022/06/14 21:24:46;;;;;;;3.80;1.40;;;;;;;16.86;52.26;100905.41;18404424;32;20093;-66
2022/06/14 21:34:55;;;;;;;2.28;1.37;;;;;;;16.63;55.08;100920.75;18393192;32;20089;-66
2022/06/14 21:45:00;;;;;;;3.15;1.58;;;;;;;16.46;55.61;100930.78;18403508;32;20100;-65
2022/06/14 21:55:08;;;;;;;6.18;1.60;;;;;;;15.65;56.53;100938.19;18425697;31;20138;-65
2022/06/14 22:05:11;;;;;;;4.25;1.70;;;;;;;15.52;58.46;100937.50;18373302;32;20097;-65
2022/06/14 22:15:16;;;;;;;2.47;1.55;;;;;;;15.92;56.20;100943.09;18372511;31;20113;-65
2022/06/14 22:25:19;;;;;;;2.95;1.62;;;;;;;15.33;58.89;100943.91;18361115;32;20162;-65
2022/06/14 22:35:24;;;;;;;3.22;1.50;;;;;;;15.39;59.80;100949.97;18360975;32;20104;-65
2022/06/14 22:45:31;;;;;;;2.72;1.60;;;;;;;15.10;60.92;100961.72;18360550;32;20097;-65
2022/06/14 22:55:34;;;;;;;3.58;1.70;;;;;;;14.95;61.54;100960.16;18360542;32;20165;-65
2022/06/14 23:05:39;;;;;;;4.75;1.70;;;;;;;14.31;64.58;100959.00;18359989;32;20086;-66
2022/06/14 23:15:42;;;;;;;3.20;1.48;;;;;;;14.40;64.38;100957.16;18360515;32;20097;-65
2022/06/14 23:25:50;;;;;;;3.70;1.92;;;;;;;13.93;66.48;100964.53;18359198;32;20112;-65
2022/06/14 23:35:54;;;;;;;3.37;1.67;;;;;;;13.96;66.79;100956.66;18357857;32;20108;-65
2022/06/14 23:46:00;;;;;;;3.70;2.00;;;;;;;13.76;65.69;100942.81;18358491;32;20112;-65
2022/06/14 23:56:08;;;;;;;3.42;1.92;;;;;;;13.20;69.57;100956.19;18359272;32;20115;-65
